Terminal Aerodrome Forecast
Issued by NWS

Home | Current Version | Previous Version | Text Only | Print | Product List | Glossary On
Versions: 1 2 3 4 5 6 7 8 9 10 11 12
000
FTUS41 KBTV 311720
TAFMSS
TAF
KMSS 311720Z 3118/0118 26012G19KT P6SM BKN050
     FM312300 30010KT P6SM BKN070
     FM011000 05008KT P6SM SKC=

USA.gov is the U.S. government's official web portal to all federal, state and local government web resources and services.